Time;durP1;ratioP1;P1;durP2;ratioP2;P2;SDS_P1;SDS_P2;PMS_P1;PMS_P2;Temp;Humidity;BMP_temperature;BMP_pressure;BME280_temperature;BME280_humidity;BME280_pressure;Samples;Min_cycle;Max_cycle;Signal;HPM_P1;HPM_P2
2023/07/17 00:01:41;;;;;;;13.23;2.97;;;;;;;;;;5104804;28;20510;-68
2023/07/17 00:04:07;;;;;;;18.05;3.33;;;;;;;;;;5105141;28;20039;-68
2023/07/17 00:06:33;;;;;;;14.20;3.13;;;;;;;;;;5101620;27;20040;-68
2023/07/17 00:08:59;;;;;;;13.32;3.05;;;;;;;;;;5137509;27;20054;-68
2023/07/17 00:11:25;;;;;;;13.63;3.42;;;;;;;;;;5101027;28;20058;-68
2023/07/17 00:13:52;;;;;;;13.75;2.78;;;;;;;;;;5103487;28;20047;-68
2023/07/17 00:16:19;;;;;;;13.20;2.90;;;;;;;;;;5103387;27;20075;-68
2023/07/17 00:18:45;;;;;;;11.05;2.33;;;;;;;;;;5105993;28;20059;-68
2023/07/17 00:21:12;;;;;;;13.70;3.35;;;;;;;;;;5104178;28;20035;-68
2023/07/17 00:23:38;;;;;;;9.77;2.72;;;;;;;;;;5109732;27;20439;-68
2023/07/17 00:26:04;;;;;;;13.38;3.13;;;;;;;;;;5110457;28;20035;-68
2023/07/17 00:28:30;;;;;;;9.20;2.50;;;;;;;;;;5099830;28;20065;-68
2023/07/17 00:30:56;;;;;;;14.73;3.33;;;;;;;;;;5105182;28;20032;-68
2023/07/17 00:33:23;;;;;;;13.75;3.38;;;;;;;;;;5100466;27;20076;-68
2023/07/17 00:35:49;;;;;;;14.45;3.33;;;;;;;;;;5103485;27;20137;-66
2023/07/17 00:38:15;;;;;;;10.63;3.13;;;;;;;;;;5111820;28;20073;-66
2023/07/17 00:40:41;;;;;;;11.82;3.05;;;;;;;;;;5109583;27;20044;-68
2023/07/17 00:43:11;;;;;;;14.00;3.25;;;;;;;;;;5110043;28;20123;-68
2023/07/17 00:45:40;;;;;;;11.50;2.65;;;;;;;;;;5112610;28;20047;-68
2023/07/17 00:48:06;;;;;;;11.77;2.85;;;;;;;;;;5111365;28;20046;-68
2023/07/17 00:50:32;;;;;;;23.02;3.42;;;;;;;;;;5110003;28;20058;-68
2023/07/17 00:52:59;;;;;;;13.95;2.90;;;;;;;;;;5111473;28;20055;-68
2023/07/17 00:55:25;;;;;;;10.15;3.05;;;;;;;;;;5112032;28;20051;-68
2023/07/17 00:57:52;;;;;;;17.40;3.22;;;;;;;;;;5111582;28;20498;-68
2023/07/17 01:00:22;;;;;;;12.13;2.55;;;;;;;;;;5108747;28;20048;-68
2023/07/17 01:02:50;;;;;;;13.23;2.92;;;;;;;;;;5103054;28;20040;-68
2023/07/17 01:05:16;;;;;;;12.63;2.90;;;;;;;;;;5107472;28;20055;-68
2023/07/17 01:07:42;;;;;;;16.80;3.30;;;;;;;;;;5108483;28;20051;-68
2023/07/17 01:10:08;;;;;;;17.00;4.53;;;;;;;;;;5109404;27;20103;-68
2023/07/17 01:12:35;;;;;;;12.00;3.50;;;;;;;;;;5106170;27;20411;-68
2023/07/17 01:15:02;;;;;;;15.40;3.47;;;;;;;;;;5099763;27;20051;-68
2023/07/17 01:17:28;;;;;;;13.18;2.92;;;;;;;;;;5107750;28;20119;-68
2023/07/17 01:19:54;;;;;;;20.15;4.22;;;;;;;;;;5109123;27;20046;-68
2023/07/17 01:22:27;;;;;;;12.40;3.50;;;;;;;;;;5099576;27;20051;-68
2023/07/17 01:24:53;;;;;;;16.93;3.17;;;;;;;;;;5103319;27;20101;-68
2023/07/17 01:27:19;;;;;;;13.40;3.92;;;;;;;;;;5105873;28;20047;-68
2023/07/17 01:29:45;;;;;;;13.63;3.55;;;;;;;;;;5108252;28;20440;-68
2023/07/17 01:32:12;;;;;;;15.07;3.30;;;;;;;;;;5107789;27;20039;-68
2023/07/17 01:34:38;;;;;;;14.45;4.03;;;;;;;;;;5106447;27;20549;-68
2023/07/17 01:37:05;;;;;;;15.55;3.63;;;;;;;;;;5104353;27;20039;-68
2023/07/17 01:39:31;;;;;;;15.45;3.08;;;;;;;;;;5115763;27;20043;-68
2023/07/17 01:41:57;;;;;;;16.15;3.65;;;;;;;;;;5105441;27;20038;-68
2023/07/17 01:44:27;;;;;;;13.55;3.42;;;;;;;;;;5101906;28;20459;-68
2023/07/17 01:46:54;;;;;;;16.33;4.22;;;;;;;;;;5101059;27;20494;-68
2023/07/17 01:49:21;;;;;;;16.70;3.45;;;;;;;;;;5103303;27;20046;-68
2023/07/17 01:51:47;;;;;;;14.20;3.83;;;;;;;;;;5100414;28;20138;-68
2023/07/17 01:54:13;;;;;;;13.10;3.55;;;;;;;;;;5102430;27;20085;-68
2023/07/17 01:56:39;;;;;;;16.88;3.83;;;;;;;;;;5100803;27;20039;-68
2023/07/17 01:59:06;;;;;;;13.13;3.33;;;;;;;;;;5102110;28;20048;-68
2023/07/17 02:01:33;;;;;;;20.63;4.28;;;;;;;;;;5102226;28;20036;-68
2023/07/17 02:04:00;;;;;;;12.18;3.38;;;;;;;;;;5100758;28;20054;-68
2023/07/17 02:06:26;;;;;;;17.05;3.40;;;;;;;;;;5102703;28;20067;-68
2023/07/17 02:08:52;;;;;;;10.23;2.58;;;;;;;;;;5101099;28;20035;-68
2023/07/17 02:11:19;;;;;;;10.98;3.05;;;;;;;;;;5106383;28;20069;-68
2023/07/17 02:13:45;;;;;;;15.00;3.30;;;;;;;;;;5099809;28;20137;-66
2023/07/17 02:16:11;;;;;;;14.07;3.78;;;;;;;;;;5105122;27;20048;-66
2023/07/17 02:18:38;;;;;;;11.68;3.00;;;;;;;;;;5101323;27;20339;-65
2023/07/17 02:21:04;;;;;;;15.65;3.60;;;;;;;;;;5099835;28;20505;-66
2023/07/17 02:23:30;;;;;;;15.32;3.30;;;;;;;;;;5101456;28;21417;-66
2023/07/17 02:25:56;;;;;;;18.05;4.03;;;;;;;;;;5100173;28;20167;-66
2023/07/17 02:28:23;;;;;;;20.80;4.35;;;;;;;;;;5101241;28;20402;-64
2023/07/17 02:30:49;;;;;;;14.40;3.28;;;;;;;;;;5099996;28;20052;-65
2023/07/17 02:33:15;;;;;;;12.95;3.63;;;;;;;;;;5134750;27;20164;-65
2023/07/17 02:35:41;;;;;;;17.17;4.10;;;;;;;;;;5103060;28;20166;-64
2023/07/17 02:38:08;;;;;;;14.32;3.50;;;;;;;;;;5100953;28;20128;-64
2023/07/17 02:40:34;;;;;;;21.10;4.70;;;;;;;;;;5106384;27;20073;-64
2023/07/17 02:43:00;;;;;;;15.30;3.53;;;;;;;;;;5106718;28;20085;-64
2023/07/17 02:45:26;;;;;;;18.95;3.72;;;;;;;;;;5100697;28;20506;-64
2023/07/17 02:47:55;;;;;;;11.90;4.78;;;;;;;;;;5102283;28;20040;-65
2023/07/17 02:50:21;;;;;;;16.48;4.82;;;;;;;;;;5105149;27;20075;-65
2023/07/17 02:52:48;;;;;;;17.10;4.03;;;;;;;;;;5108429;28;20039;-64
2023/07/17 02:55:14;;;;;;;15.63;3.95;;;;;;;;;;5108862;28;20044;-64
2023/07/17 02:57:40;;;;;;;12.65;4.00;;;;;;;;;;5107567;27;20421;-64
2023/07/17 03:00:14;;;;;;;15.65;4.30;;;;;;;;;;5100218;28;20051;-64
2023/07/17 03:02:41;;;;;;;16.77;3.80;;;;;;;;;;5108072;28;20032;-64
2023/07/17 03:05:10;;;;;;;17.30;4.50;;;;;;;;;;5109420;28;20050;-64
2023/07/17 03:07:38;;;;;;;14.35;4.00;;;;;;;;;;5098169;28;20043;-64
2023/07/17 03:10:05;;;;;;;16.33;4.60;;;;;;;;;;5102699;28;20062;-64
2023/07/17 03:12:31;;;;;;;17.52;4.00;;;;;;;;;;5096616;28;20046;-65
2023/07/17 03:14:58;;;;;;;20.73;4.65;;;;;;;;;;5104133;28;20052;-64
2023/07/17 03:17:24;;;;;;;19.75;4.55;;;;;;;;;;5102427;28;20485;-64
2023/07/17 03:19:53;;;;;;;18.30;4.60;;;;;;;;;;5105378;28;20054;-64
2023/07/17 03:22:19;;;;;;;21.77;5.13;;;;;;;;;;5098830;28;20040;-64
2023/07/17 03:24:45;;;;;;;15.55;3.58;;;;;;;;;;5102508;28;20076;-64
2023/07/17 03:27:12;;;;;;;14.05;4.32;;;;;;;;;;5113347;27;20110;-64
2023/07/17 03:29:38;;;;;;;23.48;4.07;;;;;;;;;;5111648;28;20054;-64
2023/07/17 03:32:04;;;;;;;18.25;4.22;;;;;;;;;;5105235;28;20076;-64
2023/07/17 03:34:30;;;;;;;21.90;5.22;;;;;;;;;;5102176;28;20518;-64
2023/07/17 03:36:56;;;;;;;22.13;5.15;;;;;;;;;;5100717;28;20047;-64
2023/07/17 03:39:23;;;;;;;19.42;5.07;;;;;;;;;;5106184;27;20432;-65
2023/07/17 03:41:49;;;;;;;15.68;4.32;;;;;;;;;;5103560;28;20198;-65
2023/07/17 03:44:15;;;;;;;14.38;4.32;;;;;;;;;;5101906;28;20055;-65
2023/07/17 03:46:41;;;;;;;21.52;5.45;;;;;;;;;;5102670;27;20711;-64
2023/07/17 03:49:08;;;;;;;24.00;5.07;;;;;;;;;;5104530;28;20058;-64
2023/07/17 03:51:34;;;;;;;21.38;4.45;;;;;;;;;;5103108;27;20491;-65
2023/07/17 03:54:00;;;;;;;19.95;5.40;;;;;;;;;;5101431;28;20050;-64
2023/07/17 03:56:26;;;;;;;19.67;5.22;;;;;;;;;;5103172;27;20100;-64
2023/07/17 03:58:52;;;;;;;18.48;4.53;;;;;;;;;;5101437;27;20067;-64
2023/07/17 04:01:18;;;;;;;22.33;4.82;;;;;;;;;;5103498;28;20043;-65
2023/07/17 04:03:45;;;;;;;18.10;4.53;;;;;;;;;;5103498;27;20367;-64
2023/07/17 04:06:11;;;;;;;22.45;4.70;;;;;;;;;;5102144;27;20052;-64
2023/07/17 04:08:37;;;;;;;16.60;4.22;;;;;;;;;;5104100;28;20405;-64
2023/07/17 04:11:04;;;;;;;21.30;5.72;;;;;;;;;;5104811;28;20040;-64
2023/07/17 04:13:30;;;;;;;25.80;6.30;;;;;;;;;;5096963;27;20482;-64
2023/07/17 04:16:00;;;;;;;20.65;4.85;;;;;;;;;;5103167;28;20047;-65
2023/07/17 04:18:26;;;;;;;23.75;4.70;;;;;;;;;;5107861;28;20512;-64
2023/07/17 04:20:53;;;;;;;23.23;5.57;;;;;;;;;;5104496;28;20101;-64
2023/07/17 04:23:20;;;;;;;21.42;5.20;;;;;;;;;;5105060;27;20055;-65
2023/07/17 04:25:46;;;;;;;26.90;5.25;;;;;;;;;;5109534;27;20501;-64
2023/07/17 04:28:12;;;;;;;22.05;5.05;;;;;;;;;;5109516;27;20039;-65
2023/07/17 04:30:38;;;;;;;26.58;5.40;;;;;;;;;;5110863;27;20368;-64
2023/07/17 04:33:05;;;;;;;21.63;5.35;;;;;;;;;;5104322;28;20552;-65
2023/07/17 04:35:36;;;;;;;21.83;5.78;;;;;;;;;;5110672;28;20047;-65
2023/07/17 04:38:02;;;;;;;22.15;5.25;;;;;;;;;;5112993;28;20036;-64
2023/07/17 04:40:29;;;;;;;21.77;5.65;;;;;;;;;;5110849;28;20398;-65
2023/07/17 04:42:55;;;;;;;23.60;4.90;;;;;;;;;;5112238;28;20044;-64
2023/07/17 04:45:22;;;;;;;19.92;5.18;;;;;;;;;;5111003;28;20491;-64
2023/07/17 04:47:48;;;;;;;18.70;5.45;;;;;;;;;;5106059;27;20043;-65
2023/07/17 04:50:14;;;;;;;32.35;7.30;;;;;;;;;;5103595;28;20066;-64
2023/07/17 04:52:41;;;;;;;25.45;5.95;;;;;;;;;;5103687;28;20048;-65
2023/07/17 04:55:07;;;;;;;18.52;5.32;;;;;;;;;;5107842;28;20031;-64
2023/07/17 04:57:33;;;;;;;17.98;4.95;;;;;;;;;;5110928;28;20178;-64
2023/07/17 05:00:00;;;;;;;17.45;5.13;;;;;;;;;;5111357;28;20102;-64
2023/07/17 05:02:26;;;;;;;30.58;6.22;;;;;;;;;;5111449;28;20569;-65
2023/07/17 05:04:52;;;;;;;21.70;6.15;;;;;;;;;;5108423;28;20069;-65
2023/07/17 05:07:18;;;;;;;27.20;5.90;;;;;;;;;;5111423;27;20100;-65
2023/07/17 05:09:45;;;;;;;20.42;5.30;;;;;;;;;;5109173;28;20503;-65
2023/07/17 05:12:11;;;;;;;21.23;5.63;;;;;;;;;;5107324;28;20051;-65
2023/07/17 05:14:38;;;;;;;24.02;4.93;;;;;;;;;;5111574;28;20047;-65
2023/07/17 05:17:04;;;;;;;22.75;5.82;;;;;;;;;;5110086;28;20375;-65
2023/07/17 05:19:30;;;;;;;24.10;5.65;;;;;;;;;;5112497;28;20156;-65
2023/07/17 05:21:56;;;;;;;36.08;8.57;;;;;;;;;;5113654;27;20047;-65
2023/07/17 05:24:22;;;;;;;25.60;5.78;;;;;;;;;;5113421;28;20040;-64
2023/07/17 05:26:48;;;;;;;20.58;5.50;;;;;;;;;;5109031;28;20070;-65
2023/07/17 05:29:15;;;;;;;21.55;5.63;;;;;;;;;;5111563;28;20395;-65
2023/07/17 05:31:41;;;;;;;21.70;6.40;;;;;;;;;;5101088;28;20062;-65
2023/07/17 05:34:07;;;;;;;19.85;6.93;;;;;;;;;;5110301;28;20180;-65
2023/07/17 05:36:33;;;;;;;19.90;5.95;;;;;;;;;;5106972;27;20126;-65
2023/07/17 05:38:59;;;;;;;19.98;6.90;;;;;;;;;;5111611;27;20043;-65
2023/07/17 05:41:26;;;;;;;22.58;5.53;;;;;;;;;;5111728;28;20050;-65
2023/07/17 05:43:52;;;;;;;19.88;6.50;;;;;;;;;;5104141;28;20050;-64
2023/07/17 05:46:18;;;;;;;18.38;5.55;;;;;;;;;;5109133;28;20040;-64
2023/07/17 05:48:44;;;;;;;18.38;5.40;;;;;;;;;;5107939;28;20069;-64
2023/07/17 05:51:10;;;;;;;21.17;5.75;;;;;;;;;;5104630;28;20052;-64
2023/07/17 05:53:37;;;;;;;18.70;5.15;;;;;;;;;;5111475;28;20131;-64
2023/07/17 05:56:03;;;;;;;16.42;4.88;;;;;;;;;;5112126;28;20039;-64
2023/07/17 05:58:30;;;;;;;15.20;4.55;;;;;;;;;;5110639;27;20595;-64
2023/07/17 06:00:56;;;;;;;14.88;5.50;;;;;;;;;;5113222;28;20446;-63
2023/07/17 06:03:23;;;;;;;15.52;5.50;;;;;;;;;;5112894;28;20514;-64
2023/07/17 06:05:49;;;;;;;19.20;6.10;;;;;;;;;;5110318;28;20094;-65
2023/07/17 06:08:15;;;;;;;22.60;6.97;;;;;;;;;;5111582;28;20470;-65
2023/07/17 06:10:45;;;;;;;20.38;6.68;;;;;;;;;;5111731;28;20457;-65
2023/07/17 06:13:12;;;;;;;23.20;7.50;;;;;;;;;;5110848;28;20537;-65
2023/07/17 06:15:39;;;;;;;20.95;6.13;;;;;;;;;;5113399;28;20425;-64
2023/07/17 06:18:05;;;;;;;21.48;6.53;;;;;;;;;;5110896;27;20051;-66
2023/07/17 06:20:32;;;;;;;16.08;5.07;;;;;;;;;;5106962;28;20079;-64
2023/07/17 06:22:58;;;;;;;13.68;4.03;;;;;;;;;;5112387;27;20062;-64
2023/07/17 06:25:24;;;;;;;15.82;4.60;;;;;;;;;;5112119;28;20039;-64
2023/07/17 06:27:50;;;;;;;16.63;4.63;;;;;;;;;;5111277;28;20076;-64
2023/07/17 06:30:16;;;;;;;9.98;3.78;;;;;;;;;;5111413;27;20043;-65
2023/07/17 06:32:43;;;;;;;15.43;3.97;;;;;;;;;;5112091;28;20181;-76
2023/07/17 06:35:09;;;;;;;14.30;5.30;;;;;;;;;;5111357;27;20039;-65
2023/07/17 06:37:35;;;;;;;17.95;4.72;;;;;;;;;;5111602;28;20040;-65
2023/07/17 06:40:03;;;;;;;13.80;4.45;;;;;;;;;;5110596;28;20046;-65
2023/07/17 06:42:30;;;;;;;13.00;4.65;;;;;;;;;;5111109;28;20047;-65
2023/07/17 06:44:56;;;;;;;16.65;4.57;;;;;;;;;;5108935;28;20095;-65
2023/07/17 06:47:23;;;;;;;20.25;4.93;;;;;;;;;;5111557;28;20040;-65
2023/07/17 06:49:49;;;;;;;13.45;5.28;;;;;;;;;;5110458;28;20775;-65
2023/07/17 06:52:15;;;;;;;18.15;5.63;;;;;;;;;;5112283;28;20110;-66
2023/07/17 06:54:41;;;;;;;12.57;4.10;;;;;;;;;;5111136;28;20047;-65
2023/07/17 06:57:07;;;;;;;18.35;4.53;;;;;;;;;;5111901;27;20044;-65
2023/07/17 06:59:34;;;;;;;16.95;5.13;;;;;;;;;;5111685;28;20478;-63
2023/07/17 07:02:00;;;;;;;12.00;3.85;;;;;;;;;;5110893;28;20050;-63
2023/07/17 07:04:26;;;;;;;12.98;4.07;;;;;;;;;;5111693;28;20556;-63
2023/07/17 07:06:53;;;;;;;19.17;4.80;;;;;;;;;;5112194;28;20110;-63
2023/07/17 07:09:19;;;;;;;16.85;3.45;;;;;;;;;;5110121;28;20464;-63
2023/07/17 07:11:45;;;;;;;15.10;3.35;;;;;;;;;;5110833;28;20031;-63
2023/07/17 07:14:12;;;;;;;17.60;4.85;;;;;;;;;;5110269;28;20067;-65
2023/07/17 07:16:38;;;;;;;10.60;3.45;;;;;;;;;;5109707;28;20395;-64
2023/07/17 07:19:04;;;;;;;11.02;3.88;;;;;;;;;;5110782;28;20075;-65
2023/07/17 07:21:30;;;;;;;11.82;3.35;;;;;;;;;;5111021;28;20468;-65
2023/07/17 07:23:56;;;;;;;12.38;3.17;;;;;;;;;;5109237;28;20126;-65
2023/07/17 07:26:22;;;;;;;12.88;3.22;;;;;;;;;;5112238;28;20099;-65
2023/07/17 07:28:49;;;;;;;16.75;4.75;;;;;;;;;;5110340;28;20051;-65
2023/07/17 07:31:15;;;;;;;14.82;3.88;;;;;;;;;;5111572;28;20122;-65
2023/07/17 07:33:42;;;;;;;11.52;3.85;;;;;;;;;;5111434;28;20169;-65
2023/07/17 07:36:08;;;;;;;10.63;3.45;;;;;;;;;;5109954;28;20519;-65
2023/07/17 07:38:34;;;;;;;13.30;3.58;;;;;;;;;;5110737;28;20047;-63
2023/07/17 07:41:00;;;;;;;10.95;3.78;;;;;;;;;;5111897;28;20040;-65
2023/07/17 07:43:27;;;;;;;13.30;3.70;;;;;;;;;;5110764;28;20493;-65
2023/07/17 07:45:53;;;;;;;12.10;3.97;;;;;;;;;;5110432;28;20055;-65
2023/07/17 07:48:20;;;;;;;13.23;3.42;;;;;;;;;;5110737;28;20047;-65
2023/07/17 07:50:46;;;;;;;8.95;3.92;;;;;;;;;;5110613;28;20215;-65
2023/07/17 07:53:12;;;;;;;15.88;3.65;;;;;;;;;;5111842;28;20505;-65
2023/07/17 07:55:39;;;;;;;9.55;3.50;;;;;;;;;;5111379;28;20040;-66
2023/07/17 07:58:05;;;;;;;13.20;4.43;;;;;;;;;;5109088;28;20111;-66
2023/07/17 08:00:31;;;;;;;18.65;4.13;;;;;;;;;;5110468;28;20398;-65
2023/07/17 08:02:57;;;;;;;13.82;3.38;;;;;;;;;;5110310;28;20483;-65
2023/07/17 08:05:24;;;;;;;10.98;3.33;;;;;;;;;;5109974;28;20043;-65
2023/07/17 08:07:50;;;;;;;11.27;3.40;;;;;;;;;;5110215;28;20035;-66
2023/07/17 08:10:17;;;;;;;8.82;3.13;;;;;;;;;;5110353;28;20039;-66
2023/07/17 08:12:43;;;;;;;10.88;4.22;;;;;;;;;;5112291;27;20079;-65
2023/07/17 08:15:10;;;;;;;11.10;3.00;;;;;;;;;;5114656;27;20040;-65
2023/07/17 08:17:36;;;;;;;10.95;3.63;;;;;;;;;;5113511;28;20051;-64
2023/07/17 08:20:04;;;;;;;8.50;2.88;;;;;;;;;;5114485;28;20459;-65
2023/07/17 08:22:30;;;;;;;11.00;2.80;;;;;;;;;;5113650;28;20052;-65
2023/07/17 08:24:56;;;;;;;14.68;3.25;;;;;;;;;;5112460;27;20058;-65
2023/07/17 08:27:22;;;;;;;10.13;2.58;;;;;;;;;;5113684;28;20422;-65
2023/07/17 08:29:49;;;;;;;12.00;3.17;;;;;;;;;;5114454;28;20035;-73
2023/07/17 08:32:15;;;;;;;7.95;2.72;;;;;;;;;;5114300;28;20043;-64
2023/07/17 08:34:41;;;;;;;9.95;3.05;;;;;;;;;;5114296;28;20078;-64
2023/07/17 08:37:07;;;;;;;11.27;3.30;;;;;;;;;;5115118;28;20402;-65
2023/07/17 08:39:33;;;;;;;5.95;2.00;;;;;;;;;;5113996;27;20039;-64
2023/07/17 08:42:00;;;;;;;10.00;2.80;;;;;;;;;;5114115;27;20093;-64
2023/07/17 08:44:27;;;;;;;14.60;3.38;;;;;;;;;;5113876;28;20101;-64
2023/07/17 08:46:53;;;;;;;9.80;2.97;;;;;;;;;;5112583;28;20093;-65
2023/07/17 08:49:20;;;;;;;12.13;2.70;;;;;;;;;;5113604;28;20047;-64
2023/07/17 08:51:47;;;;;;;11.32;3.08;;;;;;;;;;5113264;28;20112;-64
2023/07/17 08:54:16;;;;;;;9.68;2.78;;;;;;;;;;5110942;28;20461;-65
2023/07/17 08:56:42;;;;;;;9.45;2.83;;;;;;;;;;5105893;28;20039;-65
2023/07/17 08:59:10;;;;;;;9.98;3.15;;;;;;;;;;5114494;28;20379;-65
2023/07/17 09:01:36;;;;;;;14.50;3.45;;;;;;;;;;5112372;28;20098;-65
2023/07/17 09:04:06;;;;;;;10.20;2.30;;;;;;;;;;5113616;28;20079;-65
2023/07/17 09:06:32;;;;;;;8.48;2.22;;;;;;;;;;5114350;28;20486;-65
2023/07/17 09:08:58;;;;;;;13.63;4.25;;;;;;;;;;5113581;28;20044;-65
2023/07/17 09:11:24;;;;;;;10.45;2.88;;;;;;;;;;5114340;27;20048;-65
2023/07/17 09:13:50;;;;;;;6.43;1.85;;;;;;;;;;5113752;28;20467;-65
2023/07/17 09:16:18;;;;;;;7.82;2.20;;;;;;;;;;5111942;28;20047;-65
2023/07/17 09:18:48;;;;;;;8.90;2.50;;;;;;;;;;5112544;28;20075;-65
2023/07/17 09:21:15;;;;;;;6.10;2.08;;;;;;;;;;5113393;28;20048;-65
2023/07/17 09:23:46;;;;;;;8.32;2.35;;;;;;;;;;5112350;28;20123;-65
2023/07/17 09:26:15;;;;;;;8.38;2.60;;;;;;;;;;5112573;28;20035;-65
2023/07/17 09:28:46;;;;;;;12.35;2.75;;;;;;;;;;5111908;28;20443;-65
2023/07/17 09:31:12;;;;;;;8.02;2.20;;;;;;;;;;5112905;28;20056;-64
2023/07/17 09:33:41;;;;;;;7.78;2.28;;;;;;;;;;5112836;27;20035;-64
2023/07/17 09:36:11;;;;;;;9.15;2.28;;;;;;;;;;5115315;27;20133;-64
2023/07/17 09:38:37;;;;;;;6.82;2.13;;;;;;;;;;5123645;27;20506;-64
2023/07/17 09:41:17;;;;;;;10.05;2.58;;;;;;;;;;5125683;27;20265;-64
2023/07/17 09:43:43;;;;;;;11.00;2.83;;;;;;;;;;5109711;27;20490;-65
2023/07/17 09:46:09;;;;;;;7.55;2.15;;;;;;;;;;5111750;27;20159;-64
2023/07/17 09:48:36;;;;;;;7.53;2.75;;;;;;;;;;5101881;28;20047;-65
2023/07/17 09:51:03;;;;;;;7.68;2.30;;;;;;;;;;5108282;27;20047;-65
2023/07/17 09:53:30;;;;;;;24.40;5.40;;;;;;;;;;5111482;27;20073;-64
2023/07/17 09:55:57;;;;;;;7.93;2.63;;;;;;;;;;5108030;28;20063;-65
2023/07/17 09:58:25;;;;;;;10.25;3.40;;;;;;;;;;5109067;28;20055;-65
2023/07/17 10:00:54;;;;;;;13.00;2.92;;;;;;;;;;5108432;28;20375;-65
2023/07/17 10:03:23;;;;;;;13.02;3.22;;;;;;;;;;5107591;28;20052;-65
2023/07/17 10:05:50;;;;;;;7.22;2.35;;;;;;;;;;5106770;27;20100;-66
2023/07/17 10:08:17;;;;;;;9.95;2.75;;;;;;;;;;5108747;27;20036;-64
2023/07/17 10:10:44;;;;;;;12.80;4.63;;;;;;;;;;5109328;27;20073;-65
2023/07/17 10:13:11;;;;;;;7.25;3.00;;;;;;;;;;5109423;28;20124;-65
2023/07/17 10:15:37;;;;;;;14.38;4.10;;;;;;;;;;5107536;28;20067;-65
2023/07/17 10:18:07;;;;;;;11.48;2.58;;;;;;;;;;5107298;28;20051;-65
2023/07/17 10:20:33;;;;;;;10.40;2.95;;;;;;;;;;5107972;27;20050;-65
2023/07/17 10:23:00;;;;;;;6.75;2.30;;;;;;;;;;5109130;28;20051;-65
2023/07/17 10:25:27;;;;;;;11.60;2.80;;;;;;;;;;5107742;27;20058;-65
2023/07/17 10:27:53;;;;;;;7.05;2.25;;;;;;;;;;5108114;27;20116;-65
2023/07/17 10:30:35;;;;;;;9.98;2.65;;;;;;;;;;5108889;27;20039;-65
2023/07/17 10:33:31;;;;;;;9.18;2.53;;;;;;;;;;5108452;28;20039;-65
2023/07/17 10:36:00;;;;;;;6.75;2.60;;;;;;;;;;5101406;27;20124;-65
2023/07/17 10:38:37;;;;;;;7.38;2.58;;;;;;;;;;5107854;28;20071;-65
2023/07/17 10:41:12;;;;;;;6.18;2.35;;;;;;;;;;5107871;27;20048;-65
2023/07/17 10:43:49;;;;;;;7.65;2.42;;;;;;;;;;5108631;28;20444;-65
2023/07/17 10:46:15;;;;;;;5.88;2.20;;;;;;;;;;5107348;27;20035;-65
2023/07/17 10:48:42;;;;;;;7.90;3.08;;;;;;;;;;5108868;28;20047;-65
2023/07/17 10:51:08;;;;;;;6.25;2.08;;;;;;;;;;5107413;28;20055;-65
2023/07/17 10:53:34;;;;;;;8.45;2.58;;;;;;;;;;5106470;28;20051;-64
2023/07/17 10:56:00;;;;;;;6.90;2.47;;;;;;;;;;5105447;28;20059;-65
2023/07/17 10:58:27;;;;;;;10.95;2.47;;;;;;;;;;5090831;28;20051;-66
2023/07/17 11:00:54;;;;;;;8.40;2.33;;;;;;;;;;5105838;28;20058;-64
2023/07/17 11:03:23;;;;;;;8.85;2.60;;;;;;;;;;5107750;27;20044;-65
2023/07/17 11:05:49;;;;;;;6.50;2.40;;;;;;;;;;5107982;27;20531;-65
2023/07/17 11:08:15;;;;;;;6.97;2.67;;;;;;;;;;5108073;28;20048;-65
2023/07/17 11:10:45;;;;;;;7.72;2.42;;;;;;;;;;5106961;28;20150;-65
2023/07/17 11:13:12;;;;;;;7.82;2.17;;;;;;;;;;5106100;28;20495;-66
2023/07/17 11:15:38;;;;;;;9.32;2.35;;;;;;;;;;5105955;28;20142;-65
2023/07/17 11:18:07;;;;;;;10.07;2.53;;;;;;;;;;5110517;28;20048;-65
2023/07/17 11:20:33;;;;;;;8.77;2.10;;;;;;;;;;5108156;28;20040;-65
2023/07/17 11:23:00;;;;;;;7.50;2.28;;;;;;;;;;5103967;28;20054;-65
2023/07/17 11:25:28;;;;;;;8.20;2.35;;;;;;;;;;5106524;28;20100;-65
2023/07/17 11:27:55;;;;;;;7.18;2.20;;;;;;;;;;5105524;28;20352;-65
2023/07/17 11:30:28;;;;;;;8.68;2.70;;;;;;;;;;5105582;28;20055;-65
2023/07/17 11:33:05;;;;;;;8.75;2.20;;;;;;;;;;5108204;28;20551;-65
2023/07/17 11:35:37;;;;;;;7.63;2.33;;;;;;;;;;5107011;28;20070;-65
2023/07/17 11:38:05;;;;;;;9.20;2.07;;;;;;;;;;5108124;28;20043;-65
2023/07/17 11:40:32;;;;;;;7.95;2.40;;;;;;;;;;5107980;28;20059;-65
2023/07/17 11:43:03;;;;;;;8.85;2.33;;;;;;;;;;5106799;28;20040;-65
2023/07/17 11:45:29;;;;;;;7.88;1.92;;;;;;;;;;5108365;28;20503;-66
2023/07/17 11:47:56;;;;;;;8.93;2.20;;;;;;;;;;5110141;28;20039;-65
2023/07/17 11:50:27;;;;;;;4.93;1.75;;;;;;;;;;5110734;27;20055;-66
2023/07/17 11:53:11;;;;;;;4.85;1.80;;;;;;;;;;5110273;28;20067;-65
2023/07/17 11:55:38;;;;;;;7.13;2.08;;;;;;;;;;5113256;27;20071;-65
2023/07/17 11:58:21;;;;;;;5.03;1.83;;;;;;;;;;5110929;27;20067;-65
2023/07/17 12:00:48;;;;;;;9.00;2.40;;;;;;;;;;5111301;27;20050;-65
2023/07/17 12:03:15;;;;;;;6.68;2.38;;;;;;;;;;5110948;28;20051;-65
2023/07/17 12:05:41;;;;;;;9.95;2.45;;;;;;;;;;5110387;27;20130;-65
2023/07/17 12:08:07;;;;;;;9.20;2.95;;;;;;;;;;5111926;28;20066;-65
2023/07/17 12:10:34;;;;;;;7.72;2.88;;;;;;;;;;5108426;28;20039;-65
2023/07/17 12:13:00;;;;;;;6.70;2.63;;;;;;;;;;5144552;27;20138;-65
2023/07/17 12:15:27;;;;;;;6.25;2.20;;;;;;;;;;5108488;28;20134;-65
2023/07/17 12:18:02;;;;;;;4.68;2.25;;;;;;;;;;5108554;28;20448;-65
2023/07/17 12:20:32;;;;;;;7.57;2.22;;;;;;;;;;5113629;27;20049;-65
2023/07/17 12:22:59;;;;;;;7.15;2.63;;;;;;;;;;5110251;28;20062;-65
2023/07/17 12:25:28;;;;;;;7.28;2.30;;;;;;;;;;5110492;27;20047;-65
2023/07/17 12:27:58;;;;;;;7.97;2.20;;;;;;;;;;5109787;28;20505;-65
2023/07/17 12:30:24;;;;;;;4.88;2.10;;;;;;;;;;5111565;27;20047;-65
2023/07/17 12:32:51;;;;;;;7.35;2.33;;;;;;;;;;5111727;27;20126;-65
2023/07/17 12:35:18;;;;;;;8.30;2.60;;;;;;;;;;5109457;28;20041;-65
2023/07/17 12:37:44;;;;;;;5.38;2.15;;;;;;;;;;5110353;28;20095;-65
2023/07/17 12:40:10;;;;;;;12.32;2.65;;;;;;;;;;5110751;28;20441;-66
2023/07/17 12:42:39;;;;;;;7.97;2.65;;;;;;;;;;5111554;28;20043;-65
2023/07/17 12:45:05;;;;;;;7.60;2.15;;;;;;;;;;5113989;27;20048;-65
2023/07/17 12:47:31;;;;;;;7.50;2.15;;;;;;;;;;5110553;28;20047;-65
2023/07/17 12:49:58;;;;;;;14.45;3.85;;;;;;;;;;5110375;27;20071;-65
2023/07/17 12:52:24;;;;;;;7.78;2.83;;;;;;;;;;5106217;27;20044;-65
2023/07/17 12:54:51;;;;;;;8.57;2.15;;;;;;;;;;5105109;28;20123;-66
2023/07/17 12:57:17;;;;;;;6.82;2.22;;;;;;;;;;5101044;28;20172;-66
2023/07/17 12:59:44;;;;;;;7.85;1.85;;;;;;;;;;5102224;28;20454;-65
2023/07/17 13:02:10;;;;;;;7.38;2.05;;;;;;;;;;5106058;27;20040;-65
2023/07/17 13:04:36;;;;;;;4.53;1.73;;;;;;;;;;5106420;28;20104;-65
2023/07/17 13:07:03;;;;;;;5.50;1.80;;;;;;;;;;5109525;27;20032;-65
2023/07/17 13:09:29;;;;;;;9.40;2.00;;;;;;;;;;5109146;28;20140;-65
2023/07/17 13:11:55;;;;;;;4.57;1.52;;;;;;;;;;5109504;28;20339;-66
2023/07/17 13:14:21;;;;;;;4.95;1.67;;;;;;;;;;5107045;27;20044;-66
2023/07/17 13:16:47;;;;;;;6.88;2.05;;;;;;;;;;5110176;28;20153;-65
2023/07/17 13:19:14;;;;;;;6.63;1.75;;;;;;;;;;5108123;27;20043;-65
2023/07/17 13:21:40;;;;;;;6.55;2.20;;;;;;;;;;5102232;28;20376;-66
2023/07/17 13:24:06;;;;;;;8.60;1.70;;;;;;;;;;5109906;28;20490;-65
2023/07/17 13:26:33;;;;;;;4.97;1.80;;;;;;;;;;5110677;28;20118;-65
2023/07/17 13:29:00;;;;;;;5.05;1.92;;;;;;;;;;5108466;28;20055;-65
2023/07/17 13:31:26;;;;;;;6.38;2.20;;;;;;;;;;5101745;28;20453;-66
2023/07/17 13:33:52;;;;;;;6.97;2.47;;;;;;;;;;5107368;28;20127;-65
2023/07/17 13:36:19;;;;;;;5.75;2.00;;;;;;;;;;5113045;27;20039;-65
2023/07/17 13:38:45;;;;;;;6.18;2.15;;;;;;;;;;5106367;28;20047;-65
2023/07/17 13:41:12;;;;;;;7.75;2.80;;;;;;;;;;5109912;28;20043;-65
2023/07/17 13:43:39;;;;;;;6.97;2.22;;;;;;;;;;5109420;28;20075;-65
2023/07/17 13:46:05;;;;;;;7.03;1.90;;;;;;;;;;5109246;28;20048;-66
2023/07/17 13:48:31;;;;;;;7.03;2.42;;;;;;;;;;5108826;28;20131;-65
2023/07/17 13:50:57;;;;;;;7.55;2.63;;;;;;;;;;5109658;28;20061;-65
2023/07/17 13:53:24;;;;;;;9.93;2.00;;;;;;;;;;5112633;27;20039;-65
2023/07/17 13:55:50;;;;;;;8.05;1.92;;;;;;;;;;5108740;28;20047;-66
2023/07/17 13:58:16;;;;;;;9.82;2.28;;;;;;;;;;5109208;28;20468;-65
2023/07/17 14:00:42;;;;;;;6.03;2.10;;;;;;;;;;5108929;28;20074;-66
2023/07/17 14:03:08;;;;;;;7.05;2.42;;;;;;;;;;5105397;28;20047;-65
2023/07/17 14:05:35;;;;;;;7.95;2.30;;;;;;;;;;5108821;28;20123;-65
2023/07/17 14:08:01;;;;;;;5.13;1.90;;;;;;;;;;5108341;27;20044;-66
2023/07/17 14:10:30;;;;;;;6.30;2.30;;;;;;;;;;5109307;27;20047;-65
2023/07/17 14:12:56;;;;;;;7.13;2.13;;;;;;;;;;5109390;28;20075;-66
2023/07/17 14:15:23;;;;;;;5.03;2.15;;;;;;;;;;5107329;28;20043;-65
2023/07/17 14:17:49;;;;;;;6.93;2.38;;;;;;;;;;5106926;28;20062;-65
2023/07/17 14:20:15;;;;;;;7.93;2.70;;;;;;;;;;5108301;28;20044;-65
2023/07/17 14:22:42;;;;;;;10.15;2.83;;;;;;;;;;5107687;28;20056;-65
2023/07/17 14:25:08;;;;;;;8.88;2.88;;;;;;;;;;5106428;28;20126;-65
2023/07/17 14:27:34;;;;;;;5.85;2.00;;;;;;;;;;5113272;27;20066;-65
2023/07/17 14:30:00;;;;;;;6.93;2.60;;;;;;;;;;5090979;28;20097;-65
2023/07/17 14:32:27;;;;;;;10.95;3.35;;;;;;;;;;5106450;27;20107;-65